createdAt,value
2019-05-20T00:00:51.011Z,16.20
2019-05-20T00:01:50.981Z,16.00
2019-05-20T00:02:50.965Z,16.10
2019-05-20T00:03:50.970Z,16.20
2019-05-20T00:04:50.967Z,16.20
2019-05-20T00:05:50.967Z,15.30
2019-05-20T00:06:50.924Z,16.50
2019-05-20T00:07:50.926Z,17.40
2019-05-20T00:08:50.902Z,16.60
2019-05-20T00:09:50.910Z,17.00
2019-05-20T00:10:50.878Z,16.60
2019-05-20T00:11:53.642Z,16.60
2019-05-20T00:12:50.870Z,15.90
2019-05-20T00:13:50.843Z,16.60
2019-05-20T00:14:51.040Z,16.00
2019-05-20T00:15:50.821Z,16.90
2019-05-20T00:16:50.803Z,17.30
2019-05-20T00:17:50.800Z,16.20
2019-05-20T00:18:50.789Z,16.10
2019-05-20T00:19:50.941Z,17.20
2019-05-20T00:20:50.753Z,17.50
2019-05-20T00:21:50.764Z,17.20
2019-05-20T00:22:50.759Z,17.80
2019-05-20T00:23:50.736Z,17.80
2019-05-20T00:24:50.728Z,17.20
2019-05-20T00:25:50.729Z,17.50
2019-05-20T00:26:50.693Z,17.90
2019-05-20T00:27:50.687Z,17.20
2019-05-20T00:28:50.691Z,17.80
2019-05-20T00:29:50.668Z,17.80
2019-05-20T00:30:50.722Z,17.90
2019-05-20T00:31:50.636Z,17.10
2019-05-20T00:32:50.645Z,17.40
2019-05-20T00:33:50.632Z,17.20
2019-05-20T00:34:50.612Z,18.70
2019-05-20T00:35:50.623Z,18.10
2019-05-20T00:36:50.618Z,18.80
2019-05-20T00:37:51.510Z,18.30
2019-05-20T00:38:50.596Z,16.60
2019-05-20T00:39:50.555Z,17.80
2019-05-20T00:40:50.574Z,17.80
2019-05-20T00:41:50.543Z,18.70
2019-05-20T00:42:50.518Z,18.80
2019-05-20T00:43:50.521Z,18.50
2019-05-20T00:44:50.497Z,17.90
2019-05-20T00:45:50.511Z,17.60
2019-05-20T00:46:50.495Z,19.00
2019-05-20T00:47:50.464Z,19.70
2019-05-20T00:48:50.467Z,20.90
2019-05-20T00:49:50.451Z,20.60
2019-05-20T00:50:50.453Z,18.80
2019-05-20T00:51:50.437Z,18.70
2019-05-20T00:52:50.424Z,18.90
2019-05-20T00:53:50.406Z,19.60
2019-05-20T00:54:50.393Z,19.40
2019-05-20T00:55:50.422Z,19.40
2019-05-20T00:56:50.372Z,18.80
2019-05-20T00:57:50.375Z,19.70
2019-05-20T00:58:50.351Z,19.20
2019-05-20T00:59:50.339Z,20.30
2019-05-20T01:00:50.402Z,20.30
2019-05-20T01:01:50.309Z,19.90
2019-05-20T01:02:57.070Z,19.90
2019-05-20T01:03:50.295Z,20.10
2019-05-20T01:04:50.286Z,20.50
2019-05-20T01:05:50.291Z,21.00
2019-05-20T01:06:50.267Z,20.70
2019-05-20T01:07:50.240Z,21.40
2019-05-20T01:08:50.241Z,20.70
2019-05-20T01:09:50.242Z,20.70
2019-05-20T01:10:50.268Z,22.60
2019-05-20T01:11:50.219Z,20.50
2019-05-20T01:12:50.193Z,23.00
2019-05-20T01:13:50.201Z,20.90
2019-05-20T01:14:50.186Z,20.90
2019-05-20T01:15:50.171Z,21.60
2019-05-20T01:16:50.145Z,20.00
2019-05-20T01:17:50.151Z,21.40
2019-05-20T01:18:50.129Z,22.70
2019-05-20T01:19:50.110Z,22.90
2019-05-20T01:20:50.137Z,23.00
2019-05-20T01:21:50.090Z,22.40
2019-05-20T01:22:50.068Z,24.40
2019-05-20T01:23:50.067Z,24.20
2019-05-20T01:24:50.071Z,24.70
2019-05-20T01:25:50.070Z,23.70
2019-05-20T01:26:50.029Z,24.00
2019-05-20T01:27:50.050Z,23.50
2019-05-20T01:28:50.023Z,23.30
2019-05-20T01:29:50.023Z,23.60
2019-05-20T01:30:49.994Z,23.00
2019-05-20T01:31:49.994Z,22.30
2019-05-20T01:32:49.995Z,23.50
2019-05-20T01:33:49.960Z,23.20
2019-05-20T01:34:49.941Z,23.30
2019-05-20T01:35:49.957Z,23.50
2019-05-20T01:36:49.957Z,23.00
2019-05-20T01:37:49.920Z,24.60
2019-05-20T01:38:49.893Z,24.00
2019-05-20T01:39:49.903Z,23.70
2019-05-20T01:40:49.881Z,24.00
2019-05-20T01:41:49.912Z,24.30
2019-05-20T01:42:49.860Z,23.50
2019-05-20T01:43:49.851Z,24.00
2019-05-20T01:45:59.068Z,22.00
2019-05-20T01:47:00.050Z,24.50
2019-05-20T01:48:00.013Z,23.90
2019-05-20T01:48:59.999Z,23.20
2019-05-20T01:50:00.009Z,22.40
2019-05-20T01:51:00.014Z,23.60
2019-05-20T01:52:00.017Z,22.90
2019-05-20T01:52:59.966Z,23.50
2019-05-20T01:53:59.962Z,25.80
2019-05-20T01:54:59.940Z,26.10
2019-05-20T01:55:59.941Z,27.20
2019-05-20T01:56:59.978Z,28.60
2019-05-20T01:57:59.916Z,29.50
2019-05-20T01:58:59.899Z,25.40
2019-05-20T01:59:59.896Z,27.40
2019-05-20T02:00:59.879Z,26.50
2019-05-20T02:01:59.899Z,27.30
2019-05-20T02:02:59.892Z,27.60
2019-05-20T02:03:59.852Z,28.20
2019-05-20T02:04:59.844Z,30.10
2019-05-20T02:05:59.838Z,30.30
2019-05-20T02:06:59.816Z,30.20
2019-05-20T02:07:59.816Z,30.00
2019-05-20T02:08:59.789Z,28.80
2019-05-20T02:09:59.772Z,29.20
2019-05-20T02:10:59.771Z,30.40
2019-05-20T02:11:59.753Z,29.30
2019-05-20T02:12:59.762Z,28.10
2019-05-20T02:13:59.720Z,26.20
2019-05-20T02:14:59.725Z,29.20
2019-05-20T02:15:59.715Z,27.00
2019-05-20T02:17:02.623Z,26.10
2019-05-20T02:17:59.698Z,27.40
2019-05-20T02:18:59.674Z,28.60
2019-05-20T02:19:59.671Z,28.50
2019-05-20T02:20:59.650Z,28.70
2019-05-20T02:21:59.649Z,29.30
2019-05-20T02:22:59.652Z,29.10
2019-05-20T02:23:59.617Z,28.90
2019-05-20T02:24:59.614Z,27.80
2019-05-20T02:25:59.605Z,26.40
2019-05-20T02:26:59.600Z,26.70
2019-05-20T02:27:59.599Z,28.50
2019-05-20T02:28:59.571Z,30.20
2019-05-20T02:29:59.550Z,30.20
2019-05-20T02:30:59.549Z,30.00
2019-05-20T02:31:59.545Z,31.00
2019-05-20T02:32:59.531Z,31.40
2019-05-20T02:33:59.543Z,30.80
2019-05-20T02:34:59.513Z,29.90
2019-05-20T02:35:59.487Z,30.90
2019-05-20T02:36:59.484Z,29.40
2019-05-20T02:37:59.469Z,29.00
2019-05-20T02:38:59.488Z,30.20
2019-05-20T02:39:59.446Z,29.80
2019-05-20T02:40:59.446Z,30.50
2019-05-20T02:41:59.424Z,29.80
2019-05-20T02:42:59.407Z,29.90
2019-05-20T02:43:59.540Z,31.40
2019-05-20T02:44:59.389Z,30.80
2019-05-20T02:45:59.382Z,32.10
2019-05-20T02:46:59.376Z,31.30
2019-05-20T02:47:59.370Z,32.90
2019-05-20T02:48:59.365Z,34.00
2019-05-20T02:49:59.345Z,33.30
2019-05-20T02:50:59.339Z,32.00
2019-05-20T02:51:59.321Z,33.80
2019-05-20T02:52:59.311Z,37.10
2019-05-20T02:53:59.335Z,35.60
2019-05-20T02:54:59.314Z,39.30
2019-05-20T02:55:59.322Z,39.30
2019-05-20T02:56:59.274Z,40.00
2019-05-20T02:57:59.246Z,37.80
2019-05-20T02:58:59.245Z,37.30
2019-05-20T02:59:59.230Z,38.50
2019-05-20T03:00:59.228Z,41.60
2019-05-20T03:01:59.212Z,41.60
2019-05-20T03:02:59.192Z,40.10
2019-05-20T03:04:10.748Z,39.40
2019-05-20T03:04:59.185Z,40.00
2019-05-20T03:05:59.182Z,38.40
2019-05-20T03:06:59.156Z,38.80
2019-05-20T03:07:59.145Z,38.60
2019-05-20T03:08:59.146Z,41.10
2019-05-20T03:09:59.126Z,39.60
2019-05-20T03:10:59.111Z,39.90
2019-05-20T03:11:59.103Z,38.20
2019-05-20T03:12:59.093Z,45.50
2019-05-20T03:13:59.099Z,45.40
2019-05-20T03:14:59.079Z,41.70
2019-05-20T03:15:59.057Z,42.10
2019-05-20T03:16:59.045Z,43.30
2019-05-20T03:17:59.034Z,40.90
2019-05-20T03:18:59.040Z,42.50
2019-05-20T03:19:59.001Z,40.80
2019-05-20T03:20:58.999Z,40.50
2019-05-20T03:21:58.994Z,38.10
2019-05-20T03:22:58.996Z,38.30
2019-05-20T03:23:58.996Z,37.20
2019-05-20T03:24:58.967Z,38.60
2019-05-20T03:25:58.963Z,37.50
2019-05-20T03:26:58.927Z,37.90
2019-05-20T03:27:58.946Z,37.60
2019-05-20T03:28:58.946Z,37.00
2019-05-20T03:29:58.895Z,36.20
2019-05-20T03:30:58.883Z,35.20
2019-05-20T03:31:58.883Z,35.90
2019-05-20T03:32:58.870Z,35.00
2019-05-20T03:33:58.870Z,34.40
2019-05-20T03:35:00.868Z,35.80
2019-05-20T03:35:58.834Z,35.20
2019-05-20T03:36:58.826Z,36.30
2019-05-20T03:37:58.811Z,38.10
2019-05-20T03:38:58.824Z,38.00
2019-05-20T03:39:58.795Z,37.30
2019-05-20T03:40:58.785Z,38.20
2019-05-20T03:41:58.770Z,38.00
2019-05-20T03:42:58.765Z,37.10
2019-05-20T03:43:58.769Z,37.50
2019-05-20T03:44:58.760Z,37.00
2019-05-20T03:47:07.923Z,33.40
2019-05-20T03:48:08.947Z,36.90
2019-05-20T03:49:08.903Z,38.10
2019-05-20T03:50:08.886Z,38.50
2019-05-20T03:51:08.904Z,35.80
2019-05-20T03:52:08.863Z,35.70
2019-05-20T03:53:08.850Z,35.00
2019-05-20T03:54:08.890Z,35.30
2019-05-20T03:55:08.914Z,34.80
2019-05-20T03:56:08.815Z,35.30
2019-05-20T03:57:08.842Z,34.40
2019-05-20T03:58:13.008Z,34.40
2019-05-20T03:59:08.814Z,32.70
2019-05-20T04:00:08.802Z,32.90
2019-05-20T04:01:08.779Z,33.00
2019-05-20T04:02:08.765Z,31.80
2019-05-20T04:03:08.754Z,35.00
2019-05-20T04:04:08.737Z,33.90
2019-05-20T04:05:08.739Z,34.70
2019-05-20T04:06:08.734Z,33.10
2019-05-20T04:07:08.698Z,36.40
2019-05-20T04:08:08.703Z,35.70
2019-05-20T04:09:08.681Z,36.50
2019-05-20T04:10:08.687Z,35.30
2019-05-20T04:11:08.652Z,35.70
2019-05-20T04:12:08.646Z,37.90
2019-05-20T04:13:08.644Z,34.50
2019-05-20T04:14:08.642Z,35.30
2019-05-20T04:15:08.620Z,35.30
2019-05-20T04:16:08.625Z,38.70
2019-05-20T04:17:08.601Z,37.90
2019-05-20T04:18:08.591Z,37.90
2019-05-20T04:19:08.574Z,37.00
2019-05-20T04:20:08.575Z,36.30
2019-05-20T04:21:08.540Z,34.80
2019-05-20T04:22:08.539Z,37.10
2019-05-20T04:23:08.542Z,37.60
2019-05-20T04:24:08.515Z,35.30
2019-05-20T04:25:08.522Z,36.80
2019-05-20T04:26:08.502Z,36.20
2019-05-20T04:27:08.495Z,37.20
2019-05-20T04:28:08.459Z,38.10
2019-05-20T04:29:08.463Z,37.80
2019-05-20T04:30:08.458Z,37.00
2019-05-20T04:31:08.440Z,36.10
2019-05-20T04:32:08.425Z,35.30
2019-05-20T04:33:08.419Z,36.70
2019-05-20T04:34:08.412Z,40.30
2019-05-20T04:35:21.330Z,37.90
2019-05-20T04:36:08.391Z,39.40
2019-05-20T04:37:08.388Z,39.00
2019-05-20T04:38:08.373Z,38.90
2019-05-20T04:39:08.342Z,38.50
2019-05-20T04:40:08.366Z,39.60
2019-05-20T04:41:08.325Z,39.20
2019-05-20T04:42:08.316Z,40.20
2019-05-20T04:43:08.304Z,40.30
2019-05-20T04:44:08.295Z,40.70
2019-05-20T04:45:08.291Z,41.70
2019-05-20T04:46:08.291Z,41.30
2019-05-20T04:47:08.253Z,40.30
2019-05-20T04:48:08.290Z,40.60
2019-05-20T04:49:08.238Z,39.70
2019-05-20T04:50:08.245Z,39.60
2019-05-20T04:51:08.221Z,41.50
2019-05-20T04:52:08.196Z,38.20
2019-05-20T04:53:08.195Z,40.20
2019-05-20T04:54:08.172Z,36.60
2019-05-20T04:55:08.707Z,38.30
2019-05-20T04:56:08.169Z,38.80
2019-05-20T04:57:08.145Z,40.00
2019-05-20T04:58:08.152Z,39.50
2019-05-20T04:59:08.146Z,39.00
2019-05-20T05:00:08.161Z,40.90
2019-05-20T05:01:08.092Z,39.60
2019-05-20T05:02:08.086Z,38.20
2019-05-20T05:03:08.085Z,39.80
2019-05-20T05:04:08.103Z,38.20
2019-05-20T05:05:08.076Z,38.10
2019-05-20T05:06:08.058Z,39.30
2019-05-20T05:07:08.063Z,38.90
2019-05-20T05:08:08.029Z,36.60
2019-05-20T05:09:08.011Z,38.50
2019-05-20T05:10:08.044Z,38.40
2019-05-20T05:11:07.982Z,37.30
2019-05-20T05:12:07.985Z,37.50
2019-05-20T05:13:07.971Z,36.50
2019-05-20T05:14:07.998Z,37.90
2019-05-20T05:15:08.241Z,38.20
2019-05-20T05:16:07.959Z,38.70
2019-05-20T05:17:07.965Z,37.40
2019-05-20T05:18:07.920Z,37.40
2019-05-20T05:19:07.906Z,38.50
2019-05-20T05:20:07.898Z,36.80
2019-05-20T05:21:07.909Z,36.40
2019-05-20T05:22:07.880Z,38.00
2019-05-20T05:23:07.853Z,38.00
2019-05-20T05:24:07.849Z,38.30
2019-05-20T05:25:07.837Z,37.90
2019-05-20T05:26:07.852Z,39.70
2019-05-20T05:27:07.816Z,38.60
2019-05-20T05:28:07.788Z,38.70
2019-05-20T05:29:07.779Z,38.90
2019-05-20T05:30:07.780Z,38.40
2019-05-20T05:31:07.775Z,37.20
2019-05-20T05:32:07.767Z,38.40
2019-05-20T05:33:07.742Z,38.60
2019-05-20T05:34:07.738Z,39.60
2019-05-20T05:35:07.717Z,37.00
2019-05-20T05:36:07.724Z,37.60
2019-05-20T05:37:07.730Z,36.80
2019-05-20T05:38:08.263Z,37.20
2019-05-20T05:39:07.770Z,36.90
2019-05-20T05:40:08.288Z,38.50
2019-05-20T05:41:07.676Z,38.90
2019-05-20T05:42:07.653Z,39.30
2019-05-20T05:43:07.645Z,37.60
2019-05-20T05:44:07.629Z,38.40
2019-05-20T05:45:07.605Z,38.20
2019-05-20T05:46:07.615Z,36.40
2019-05-20T05:48:17.035Z,37.40
2019-05-20T05:49:17.814Z,38.80
2019-05-20T05:50:17.823Z,37.10
2019-05-20T05:51:17.850Z,37.70
2019-05-20T05:52:17.802Z,38.30
2019-05-20T05:53:17.790Z,37.40
2019-05-20T05:54:17.782Z,38.80
2019-05-20T05:55:17.780Z,39.00
2019-05-20T05:56:17.758Z,38.90
2019-05-20T05:57:17.725Z,36.70
2019-05-20T05:58:17.742Z,38.80
2019-05-20T05:59:17.721Z,40.70
2019-05-20T06:00:17.696Z,40.30
2019-05-20T06:01:17.792Z,40.80
2019-05-20T06:02:17.691Z,38.70
2019-05-20T06:03:17.669Z,40.60
2019-05-20T06:04:17.655Z,42.00
2019-05-20T06:05:17.646Z,44.80
2019-05-20T06:06:17.672Z,42.80
2019-05-20T06:07:17.608Z,43.50
2019-05-20T06:08:17.611Z,43.30
2019-05-20T06:09:17.593Z,44.10
2019-05-20T06:10:17.580Z,43.80
2019-05-20T06:11:17.588Z,43.20
2019-05-20T06:12:17.566Z,47.10
2019-05-20T06:13:17.552Z,46.50
2019-05-20T06:14:17.591Z,46.20
2019-05-20T06:15:17.531Z,45.90
2019-05-20T06:16:34.987Z,45.50
2019-05-20T06:17:17.506Z,47.50
2019-05-20T06:18:17.505Z,47.10
2019-05-20T06:19:18.038Z,48.70
2019-05-20T06:20:17.495Z,47.60
2019-05-20T06:21:17.490Z,47.30
2019-05-20T06:22:17.467Z,49.60
2019-05-20T06:23:17.444Z,50.70
2019-05-20T06:24:17.426Z,48.80
2019-05-20T06:25:17.418Z,48.00
2019-05-20T06:26:17.424Z,47.80
2019-05-20T06:27:17.401Z,48.30
2019-05-20T06:28:17.412Z,46.90
2019-05-20T06:29:17.364Z,49.70
2019-05-20T06:30:17.416Z,49.50
2019-05-20T06:31:17.455Z,49.00
2019-05-20T06:32:17.339Z,51.10
2019-05-20T06:33:17.334Z,50.00
2019-05-20T06:34:17.318Z,51.20
2019-05-20T06:35:17.301Z,47.30
2019-05-20T06:36:26.426Z,49.00
2019-05-20T06:37:17.279Z,49.40
2019-05-20T06:38:17.270Z,50.00
2019-05-20T06:39:17.321Z,48.60
2019-05-20T06:40:17.243Z,49.60
2019-05-20T06:41:17.292Z,49.50
2019-05-20T06:42:17.272Z,48.90
2019-05-20T06:43:17.225Z,49.00
2019-05-20T06:44:17.198Z,49.00
2019-05-20T06:45:17.300Z,47.70
2019-05-20T06:46:17.179Z,46.40
2019-05-20T06:47:17.202Z,49.80
2019-05-20T06:48:17.155Z,50.10
2019-05-20T06:49:17.171Z,48.60
2019-05-20T06:50:17.154Z,49.70
2019-05-20T06:51:17.161Z,51.80
2019-05-20T06:52:17.136Z,49.10
2019-05-20T06:53:17.178Z,51.00
2019-05-20T06:54:17.126Z,50.80
2019-05-20T06:55:17.091Z,51.00
2019-05-20T06:56:17.110Z,50.40
2019-05-20T06:57:17.111Z,50.90
2019-05-20T06:58:17.145Z,50.10
2019-05-20T06:59:17.035Z,51.50
2019-05-20T07:00:17.075Z,53.20
2019-05-20T07:01:17.045Z,52.80
2019-05-20T07:02:17.036Z,53.10
2019-05-20T07:03:16.987Z,51.50
2019-05-20T07:04:17.031Z,54.00
2019-05-20T07:05:17.012Z,55.00
2019-05-20T07:06:17.022Z,53.30
2019-05-20T07:07:21.005Z,54.60
2019-05-20T07:08:16.977Z,54.20
2019-05-20T07:09:16.926Z,54.70
2019-05-20T07:10:17.013Z,56.10
2019-05-20T07:11:16.923Z,54.90
2019-05-20T07:12:16.969Z,54.10
2019-05-20T07:13:16.873Z,53.60
2019-05-20T07:14:16.891Z,55.60
2019-05-20T07:15:16.860Z,54.30
2019-05-20T07:16:16.875Z,52.80
2019-05-20T07:17:17.087Z,54.40
2019-05-20T07:18:16.867Z,53.40
2019-05-20T07:19:16.921Z,53.50
2019-05-20T07:20:16.881Z,51.50
2019-05-20T07:21:16.837Z,52.50
2019-05-20T07:22:16.941Z,52.40
2019-05-20T07:23:16.990Z,52.50
2019-05-20T07:24:16.952Z,55.30
2019-05-20T07:25:17.192Z,52.10
2019-05-20T07:26:16.741Z,53.80
2019-05-20T07:27:16.763Z,54.60
2019-05-20T07:28:16.729Z,54.30
2019-05-20T07:29:16.728Z,53.20
2019-05-20T07:30:16.706Z,53.90
2019-05-20T07:31:16.678Z,54.50
2019-05-20T07:32:16.730Z,54.90
2019-05-20T07:33:16.686Z,56.00
2019-05-20T07:34:17.311Z,56.70
2019-05-20T07:35:29.647Z,56.30
2019-05-20T07:36:16.671Z,57.70
2019-05-20T07:37:16.818Z,56.80
2019-05-20T07:38:16.599Z,57.40
2019-05-20T07:39:16.847Z,56.10
2019-05-20T07:40:16.569Z,55.20
2019-05-20T07:41:16.705Z,55.70
2019-05-20T07:42:16.595Z,58.10
2019-05-20T07:43:16.545Z,57.10
2019-05-20T07:44:16.531Z,57.50
2019-05-20T07:45:16.534Z,57.20
2019-05-20T07:46:16.640Z,54.20
2019-05-20T07:47:16.516Z,54.70
2019-05-20T07:49:25.731Z,44.90
2019-05-20T07:50:26.676Z,50.80
2019-05-20T07:51:26.711Z,53.10
2019-05-20T07:52:26.678Z,51.50
2019-05-20T07:53:26.685Z,51.70
2019-05-20T07:54:26.631Z,49.90
2019-05-20T07:55:26.638Z,49.80
2019-05-20T07:56:26.624Z,50.10
2019-05-20T07:57:26.629Z,50.70
2019-05-20T07:58:26.613Z,47.40
2019-05-20T07:59:26.657Z,47.00
2019-05-20T08:00:26.592Z,45.50
2019-05-20T08:01:26.573Z,45.60
2019-05-20T08:02:26.581Z,45.40
2019-05-20T08:03:26.550Z,45.00
2019-05-20T08:04:26.537Z,46.50
2019-05-20T08:05:26.565Z,47.80
2019-05-20T08:06:26.531Z,47.50
2019-05-20T08:07:35.695Z,48.20
2019-05-20T08:08:26.493Z,48.60
2019-05-20T08:09:26.493Z,47.30
2019-05-20T08:10:26.463Z,46.70
2019-05-20T08:11:26.462Z,46.00
2019-05-20T08:12:26.437Z,44.80
2019-05-20T08:13:26.454Z,45.20
2019-05-20T08:14:26.417Z,44.80
2019-05-20T08:15:26.423Z,45.50
2019-05-20T08:16:26.395Z,46.90
2019-05-20T08:17:26.401Z,46.90
2019-05-20T08:18:26.393Z,48.20
2019-05-20T08:19:26.371Z,49.20
2019-05-20T08:20:26.359Z,49.50
2019-05-20T08:21:26.345Z,49.10
2019-05-20T08:22:26.329Z,48.90
2019-05-20T08:23:26.342Z,48.00
2019-05-20T08:24:26.345Z,47.20
2019-05-20T08:25:26.301Z,47.90
2019-05-20T08:26:26.293Z,48.50
2019-05-20T08:27:26.278Z,47.80
2019-05-20T08:28:26.273Z,46.60
2019-05-20T08:29:26.261Z,47.00
2019-05-20T08:30:26.306Z,46.70
2019-05-20T08:31:26.228Z,47.00
2019-05-20T08:32:26.235Z,45.70
2019-05-20T08:33:26.228Z,46.60
2019-05-20T08:34:26.343Z,46.30
2019-05-20T08:35:26.213Z,48.50
2019-05-20T08:36:26.209Z,47.40
2019-05-20T08:37:26.176Z,48.40
2019-05-20T08:38:26.166Z,46.60
2019-05-20T08:39:26.148Z,46.90
2019-05-20T08:40:26.143Z,48.10
2019-05-20T08:41:26.129Z,48.60
2019-05-20T08:42:26.111Z,47.70
2019-05-20T08:43:26.114Z,45.50
2019-05-20T08:44:26.258Z,46.70
2019-05-20T08:45:26.082Z,46.50
2019-05-20T08:46:26.072Z,47.60
2019-05-20T08:47:26.056Z,48.20
2019-05-20T08:48:26.073Z,47.90
2019-05-20T08:49:26.076Z,47.50
2019-05-20T08:50:26.028Z,48.90
2019-05-20T08:51:26.007Z,48.30
2019-05-20T08:52:26.978Z,49.50
2019-05-20T08:53:26.053Z,49.50
2019-05-20T08:54:26.001Z,47.60
2019-05-20T08:55:26.000Z,46.70
2019-05-20T08:56:26.063Z,46.50
2019-05-20T08:57:25.991Z,47.60
2019-05-20T08:58:25.979Z,46.70
2019-05-20T08:59:25.949Z,46.50
2019-05-20T09:00:26.197Z,47.30
2019-05-20T09:01:25.923Z,44.90
2019-05-20T09:02:25.944Z,45.80
2019-05-20T09:03:29.987Z,47.40
2019-05-20T09:04:26.099Z,48.60
2019-05-20T09:05:28.166Z,47.20
2019-05-20T09:06:25.892Z,47.30
2019-05-20T09:07:25.863Z,46.40
2019-05-20T09:08:25.838Z,46.70
2019-05-20T09:09:25.913Z,46.50
2019-05-20T09:10:25.826Z,47.20
2019-05-20T09:11:25.801Z,46.30
2019-05-20T09:12:25.883Z,50.00
2019-05-20T09:13:25.881Z,46.50
2019-05-20T09:14:25.784Z,46.40
2019-05-20T09:15:25.895Z,45.10
2019-05-20T09:16:25.786Z,46.80
2019-05-20T09:17:25.761Z,47.50
2019-05-20T09:18:25.725Z,45.80
2019-05-20T09:19:25.741Z,44.70
2019-05-20T09:20:25.699Z,45.10
2019-05-20T09:21:25.715Z,44.40
2019-05-20T09:22:25.674Z,44.60
2019-05-20T09:23:25.676Z,45.20
2019-05-20T09:24:25.677Z,46.60
2019-05-20T09:25:25.639Z,45.50
2019-05-20T09:26:25.637Z,45.20
2019-05-20T09:27:25.636Z,44.60
2019-05-20T09:28:25.622Z,43.90
2019-05-20T09:29:25.688Z,44.90
2019-05-20T09:30:25.572Z,44.80
2019-05-20T09:31:25.599Z,46.60
2019-05-20T09:32:25.610Z,45.20
2019-05-20T09:33:25.598Z,46.60
2019-05-20T09:34:25.581Z,45.40
2019-05-20T09:35:26.456Z,45.80
2019-05-20T09:36:26.107Z,46.60
2019-05-20T09:37:25.501Z,45.50
2019-05-20T09:38:25.509Z,45.40
2019-05-20T09:39:25.533Z,43.80
2019-05-20T09:40:26.907Z,44.00
2019-05-20T09:41:25.465Z,43.60
2019-05-20T09:42:25.487Z,41.80
2019-05-20T09:43:25.495Z,41.90
2019-05-20T09:44:25.471Z,43.50
2019-05-20T09:45:25.448Z,42.50
2019-05-20T09:46:25.422Z,44.00
2019-05-20T09:47:26.213Z,41.90
2019-05-20T09:48:25.594Z,42.80
2019-05-20T09:50:34.524Z,38.60
2019-05-20T09:51:35.506Z,41.70
2019-05-20T09:52:35.504Z,42.10
2019-05-20T09:53:35.505Z,41.90
2019-05-20T09:54:35.546Z,42.50
2019-05-20T09:55:35.841Z,43.40
2019-05-20T09:56:35.444Z,43.60
2019-05-20T09:57:35.446Z,42.30
2019-05-20T09:58:35.438Z,41.50
2019-05-20T09:59:43.256Z,43.10
2019-05-20T10:00:35.455Z,43.60
2019-05-20T10:01:39.591Z,43.40
2019-05-20T10:02:38.329Z,43.00
2019-05-20T10:03:35.363Z,44.20
2019-05-20T10:04:35.381Z,43.10
2019-05-20T10:05:37.436Z,43.10
2019-05-20T10:06:35.321Z,43.60
2019-05-20T10:07:35.313Z,43.20
2019-05-20T10:08:40.909Z,44.10
2019-05-20T10:09:35.322Z,43.30
2019-05-20T10:10:35.289Z,41.90
2019-05-20T10:11:35.297Z,42.40
2019-05-20T10:12:46.035Z,42.30
2019-05-20T10:13:35.257Z,41.60
2019-05-20T10:14:35.271Z,42.70
2019-05-20T10:15:35.284Z,43.60
2019-05-20T10:16:35.252Z,44.00
2019-05-20T10:17:35.204Z,43.50
2019-05-20T10:18:37.747Z,43.60
2019-05-20T10:19:35.182Z,43.50
2019-05-20T10:20:35.277Z,45.30
2019-05-20T10:21:36.059Z,44.50
2019-05-20T10:22:35.194Z,45.50
2019-05-20T10:23:35.688Z,45.40
2019-05-20T10:24:35.131Z,45.50
2019-05-20T10:25:35.146Z,44.70
2019-05-20T10:26:35.128Z,45.80
2019-05-20T10:27:35.103Z,44.70
2019-05-20T10:28:35.101Z,47.20
2019-05-20T10:29:35.094Z,47.00
2019-05-20T10:30:35.124Z,44.40
2019-05-20T10:31:35.072Z,44.80
2019-05-20T10:32:35.061Z,45.50
2019-05-20T10:33:37.111Z,45.50
2019-05-20T10:34:37.270Z,45.30
2019-05-20T10:35:35.026Z,45.00
2019-05-20T10:36:35.111Z,44.80
2019-05-20T10:37:35.047Z,45.50
2019-05-20T10:38:34.997Z,45.40
2019-05-20T10:39:34.970Z,42.30
2019-05-20T10:40:35.078Z,43.90
2019-05-20T10:41:34.948Z,43.30
2019-05-20T10:42:34.926Z,44.20
2019-05-20T10:43:34.985Z,43.40
2019-05-20T10:44:34.905Z,43.10
2019-05-20T10:45:34.927Z,45.20
2019-05-20T10:46:34.897Z,44.70
2019-05-20T10:47:34.882Z,46.10
2019-05-20T10:48:34.927Z,44.00
2019-05-20T10:49:34.890Z,43.70
2019-05-20T10:50:34.874Z,43.60
2019-05-20T10:51:34.847Z,43.80
2019-05-20T10:52:34.819Z,45.70
2019-05-20T10:53:34.810Z,43.20
2019-05-20T10:54:34.808Z,42.50
2019-05-20T10:55:34.822Z,42.00
2019-05-20T10:56:34.783Z,43.10
2019-05-20T10:57:34.805Z,43.20
2019-05-20T10:58:34.755Z,42.80
2019-05-20T10:59:34.751Z,43.70
2019-05-20T11:00:34.754Z,43.80
2019-05-20T11:01:34.741Z,44.10
2019-05-20T11:02:34.718Z,43.60
2019-05-20T11:03:34.715Z,43.00
2019-05-20T11:04:35.563Z,43.00
2019-05-20T11:05:34.683Z,43.40
2019-05-20T11:06:34.696Z,44.00
2019-05-20T11:07:34.669Z,41.70
2019-05-20T11:08:34.662Z,44.20
2019-05-20T11:09:35.141Z,44.50
2019-05-20T11:10:34.650Z,42.90
2019-05-20T11:11:34.637Z,43.20
2019-05-20T11:12:34.609Z,41.50
2019-05-20T11:13:34.603Z,42.70
2019-05-20T11:14:34.595Z,42.80
2019-05-20T11:15:34.570Z,41.90
2019-05-20T11:16:34.643Z,41.90
2019-05-20T11:17:34.576Z,41.80
2019-05-20T11:18:34.572Z,43.00
2019-05-20T11:19:34.528Z,42.30
2019-05-20T11:20:34.538Z,41.00
2019-05-20T11:21:34.556Z,40.40
2019-05-20T11:22:34.526Z,42.30
2019-05-20T11:23:34.488Z,42.70
2019-05-20T11:24:34.475Z,42.00
2019-05-20T11:25:34.490Z,42.80
2019-05-20T11:26:34.512Z,41.90
2019-05-20T11:27:34.754Z,43.00
2019-05-20T11:28:34.445Z,43.10
2019-05-20T11:29:34.423Z,42.50
2019-05-20T11:30:34.437Z,42.00
2019-05-20T11:31:34.432Z,43.80
2019-05-20T11:32:34.399Z,45.20
2019-05-20T11:33:34.391Z,43.50
2019-05-20T11:34:34.407Z,43.30
2019-05-20T11:35:34.362Z,42.30
2019-05-20T11:36:34.371Z,42.40
2019-05-20T11:37:34.344Z,43.10
2019-05-20T11:38:34.756Z,43.00
2019-05-20T11:39:34.358Z,42.50
2019-05-20T11:40:34.302Z,43.20
2019-05-20T11:41:52.920Z,42.60
2019-05-20T11:42:34.276Z,43.00
2019-05-20T11:43:34.262Z,42.80
2019-05-20T11:44:34.256Z,42.00
2019-05-20T11:45:34.268Z,42.00
2019-05-20T11:46:34.253Z,41.70
2019-05-20T11:47:34.230Z,42.50
2019-05-20T11:48:34.217Z,40.60
2019-05-20T11:49:34.220Z,41.90
2019-05-20T11:51:44.604Z,38.30
2019-05-20T11:52:45.543Z,41.80
2019-05-20T11:53:45.582Z,41.60
2019-05-20T11:54:45.502Z,43.30
2019-05-20T11:55:45.505Z,43.40
2019-05-20T11:56:45.498Z,43.90
2019-05-20T11:57:45.487Z,43.80
2019-05-20T11:58:45.476Z,44.90
2019-05-20T11:59:45.463Z,42.80
2019-05-20T12:00:45.447Z,43.10
2019-05-20T12:01:45.466Z,44.10
2019-05-20T12:02:45.425Z,42.70
2019-05-20T12:03:45.441Z,45.70
2019-05-20T12:04:45.424Z,44.60
2019-05-20T12:05:45.469Z,43.20
2019-05-20T12:06:45.400Z,42.00
2019-05-20T12:07:45.379Z,43.70
2019-05-20T12:08:45.396Z,43.50
2019-05-20T12:09:49.592Z,44.20
2019-05-20T12:10:46.184Z,42.60
2019-05-20T12:11:45.451Z,42.40
2019-05-20T12:12:46.193Z,44.10
2019-05-20T12:13:45.367Z,43.50
2019-05-20T12:14:45.313Z,42.90
2019-05-20T12:15:45.287Z,43.80
2019-05-20T12:16:45.330Z,44.20
2019-05-20T12:17:45.284Z,45.20
2019-05-20T12:18:45.372Z,43.40
2019-05-20T12:19:45.563Z,42.00
2019-05-20T12:20:45.260Z,43.00
2019-05-20T12:21:45.247Z,44.30
2019-05-20T12:22:45.251Z,44.70
2019-05-20T12:23:45.190Z,44.50
2019-05-20T12:24:45.180Z,43.10
2019-05-20T12:25:45.176Z,43.00
2019-05-20T12:26:45.159Z,44.90
2019-05-20T12:27:45.168Z,44.40
2019-05-20T12:28:45.151Z,43.00
2019-05-20T12:29:45.129Z,42.40
2019-05-20T12:30:45.118Z,44.30
2019-05-20T12:31:45.115Z,44.60
2019-05-20T12:32:45.132Z,44.00
2019-05-20T12:33:45.087Z,43.60
2019-05-20T12:34:45.086Z,43.40
2019-05-20T12:35:45.059Z,43.20
2019-05-20T12:36:45.069Z,44.00
2019-05-20T12:37:45.872Z,45.70
2019-05-20T12:38:45.052Z,43.70
2019-05-20T12:39:45.023Z,45.10
2019-05-20T12:40:45.179Z,44.80
2019-05-20T12:41:45.148Z,43.50
2019-05-20T12:42:45.689Z,46.00
2019-05-20T12:43:45.345Z,45.60
2019-05-20T12:44:44.974Z,44.00
2019-05-20T12:45:44.966Z,44.20
2019-05-20T12:46:45.075Z,44.80
2019-05-20T12:47:44.967Z,44.90
2019-05-20T12:48:45.002Z,44.00
2019-05-20T12:49:44.920Z,45.60
2019-05-20T12:50:44.955Z,44.30
2019-05-20T12:51:44.940Z,43.70
2019-05-20T12:52:44.900Z,43.70
2019-05-20T12:53:44.870Z,44.40
2019-05-20T12:54:44.861Z,41.70
2019-05-20T12:55:44.845Z,43.30
2019-05-20T12:56:44.844Z,43.80
2019-05-20T12:57:44.870Z,44.20
2019-05-20T12:58:44.820Z,44.50
2019-05-20T12:59:44.807Z,46.10